createdAt,value
2023-02-19T00:01:41.112Z,100387.34
2023-02-19T00:04:12.092Z,100383.69
2023-02-19T00:06:39.734Z,100378.84
2023-02-19T00:09:07.600Z,100363.06
2023-02-19T00:11:36.388Z,100360.88
2023-02-19T00:14:05.083Z,100363.91
2023-02-19T00:16:35.740Z,100372.03
2023-02-19T00:19:05.261Z,100372.19
2023-02-19T00:21:33.381Z,100375.34
2023-02-19T00:24:02.458Z,100372.97
2023-02-19T00:26:30.768Z,100369.69
2023-02-19T00:28:59.339Z,100372.75
2023-02-19T00:31:31.492Z,100329.91
2023-02-19T00:34:03.788Z,100377.94
2023-02-19T00:36:32.461Z,100380.19
2023-02-19T00:39:00.136Z,100378.69
2023-02-19T00:41:28.900Z,100368.41
2023-02-19T00:43:59.499Z,100374.88
2023-02-19T00:46:29.619Z,100371.81
2023-02-19T00:48:58.026Z,100371.03
2023-02-19T00:51:29.473Z,100376.81
2023-02-19T00:53:57.667Z,100378.53
2023-02-19T00:56:25.421Z,100371.25
2023-02-19T00:58:53.196Z,100364.13
2023-02-19T01:01:21.929Z,100366.81
2023-02-19T01:03:50.410Z,100371.75
2023-02-19T01:06:20.857Z,100373.78
2023-02-19T01:08:50.511Z,100367.41
2023-02-19T01:11:20.266Z,100369.28
2023-02-19T01:13:48.013Z,100363.06
2023-02-19T01:16:17.476Z,100355.88
2023-02-19T01:18:46.220Z,100373.03
2023-02-19T01:21:16.164Z,100372.13
2023-02-19T01:23:44.971Z,100377.31
2023-02-19T01:26:15.944Z,100357.72
2023-02-19T01:28:43.734Z,100353.94
2023-02-19T01:31:14.681Z,100350.03
2023-02-19T01:33:45.846Z,100352.34
2023-02-19T01:36:14.217Z,100354.34
2023-02-19T01:38:42.486Z,100356.91
2023-02-19T01:41:15.123Z,100348.66
2023-02-19T01:44:03.869Z,100358.53
2023-02-19T01:46:33.127Z,100353.31
2023-02-19T01:49:04.797Z,100341.84
2023-02-19T01:51:35.008Z,100337.19
2023-02-19T01:54:05.885Z,100337.81
2023-02-19T01:56:38.311Z,100336.88
2023-02-19T01:59:27.092Z,100338.41
2023-02-19T02:01:54.867Z,100334.84
2023-02-19T02:04:22.888Z,100337.84
2023-02-19T02:06:52.658Z,100334.19
2023-02-19T02:09:39.885Z,100330.63
2023-02-19T02:12:09.079Z,100327.44
2023-02-19T02:14:39.834Z,100320.03
2023-02-19T02:17:21.251Z,100320.84
2023-02-19T02:20:07.681Z,100325.03
2023-02-19T02:22:41.882Z,100322.19
2023-02-19T02:25:37.084Z,100323.44
2023-02-19T02:28:23.336Z,100300.94
2023-02-19T02:30:57.057Z,100314.91
2023-02-19T02:33:33.880Z,100318.16
2023-02-19T02:36:07.180Z,100312.09
2023-02-19T02:38:38.795Z,100309.22
2023-02-19T02:41:07.604Z,100309.00
2023-02-19T02:43:35.630Z,100292.31
2023-02-19T02:46:06.398Z,100308.91
2023-02-19T02:48:41.871Z,100301.19
2023-02-19T02:51:16.927Z,100305.66
2023-02-19T02:54:12.111Z,100299.16
2023-02-19T02:56:42.420Z,100281.16
2023-02-19T02:59:13.637Z,100291.00
2023-02-19T03:02:02.702Z,100286.66
2023-02-19T03:04:36.325Z,100296.63
2023-02-19T03:07:08.874Z,100291.22
2023-02-19T03:09:41.408Z,100275.97
2023-02-19T03:12:33.549Z,100288.84
2023-02-19T03:15:26.179Z,100280.88
2023-02-19T03:18:17.753Z,100281.94
2023-02-19T03:20:49.498Z,100274.59
2023-02-19T03:23:20.215Z,100269.69
2023-02-19T03:26:05.885Z,100272.00
2023-02-19T03:29:09.717Z,100284.84
2023-02-19T03:31:40.760Z,100277.22
2023-02-19T03:34:16.146Z,100277.06
2023-02-19T03:36:46.628Z,100254.88
2023-02-19T03:39:18.385Z,100255.97
2023-02-19T03:41:54.801Z,100270.88
2023-02-19T03:44:29.361Z,100273.41
2023-02-19T03:47:03.624Z,100277.22
2023-02-19T03:49:43.500Z,100274.09
2023-02-19T03:52:17.477Z,100281.09
2023-02-19T03:54:53.891Z,100280.41
2023-02-19T03:57:26.736Z,100279.88
2023-02-19T04:00:00.389Z,100283.06
2023-02-19T04:02:33.791Z,100281.03
2023-02-19T04:05:08.938Z,100288.47
2023-02-19T04:07:41.098Z,100282.47
2023-02-19T04:10:10.860Z,100283.84
2023-02-19T04:12:49.393Z,100299.31
2023-02-19T04:15:22.587Z,100285.34
2023-02-19T04:17:55.847Z,100287.66
2023-02-19T04:20:28.728Z,100298.03
2023-02-19T04:22:57.285Z,100295.59
2023-02-19T04:25:27.153Z,100303.16
2023-02-19T04:27:55.284Z,100306.25
2023-02-19T04:30:23.349Z,100307.84
2023-02-19T04:32:51.226Z,100297.44
2023-02-19T04:35:18.889Z,100290.28
2023-02-19T04:37:47.948Z,100291.91
2023-02-19T04:40:15.617Z,100301.69
2023-02-19T04:42:43.296Z,100289.16
2023-02-19T04:45:10.945Z,100288.16
2023-02-19T04:47:38.617Z,100284.03
2023-02-19T04:50:07.745Z,100283.66
2023-02-19T04:52:35.452Z,100297.63
2023-02-19T04:55:04.831Z,100307.09
2023-02-19T04:57:32.528Z,100300.81
2023-02-19T05:00:00.198Z,100296.84
2023-02-19T05:02:27.892Z,100301.69
2023-02-19T05:04:55.536Z,100304.72
2023-02-19T05:07:23.190Z,100317.81
2023-02-19T05:09:50.834Z,100307.03
2023-02-19T05:12:19.856Z,100311.09
2023-02-19T05:14:47.511Z,100313.19
2023-02-19T05:17:15.216Z,100305.66
2023-02-19T05:19:42.918Z,100311.69
2023-02-19T05:22:10.560Z,100312.22
2023-02-19T05:24:38.169Z,100316.38
2023-02-19T05:27:05.792Z,100311.72
2023-02-19T05:29:34.831Z,100314.13
2023-02-19T05:32:02.489Z,100324.34
2023-02-19T05:34:30.182Z,100321.63
2023-02-19T05:36:57.791Z,100315.47
2023-02-19T05:39:25.404Z,100326.66
2023-02-19T05:41:53.097Z,100334.50
2023-02-19T05:44:20.729Z,100327.78
2023-02-19T05:46:49.712Z,100336.94
2023-02-19T05:49:17.344Z,100281.19
2023-02-19T05:51:45.155Z,100337.69
2023-02-19T05:54:12.897Z,100334.66
2023-02-19T05:56:42.149Z,100339.25
2023-02-19T05:59:16.867Z,100344.38
2023-02-19T06:01:44.870Z,100344.13
2023-02-19T06:04:15.495Z,100341.53
2023-02-19T06:06:43.449Z,100331.91
2023-02-19T06:09:11.645Z,100339.97
2023-02-19T06:11:40.413Z,100359.69
2023-02-19T06:14:08.420Z,100362.53
2023-02-19T06:16:36.082Z,100372.03
2023-02-19T06:19:04.362Z,100376.16
2023-02-19T06:21:33.414Z,100383.66
2023-02-19T06:24:06.021Z,100386.97
2023-02-19T06:26:33.949Z,100390.59
2023-02-19T06:29:01.656Z,100386.09
2023-02-19T06:31:29.526Z,100394.31
2023-02-19T06:33:57.236Z,100399.44
2023-02-19T06:36:26.109Z,100369.41
2023-02-19T06:38:55.140Z,100403.34
2023-02-19T06:41:22.813Z,100405.03
2023-02-19T06:43:50.648Z,100397.84
2023-02-19T06:46:18.376Z,100407.38
2023-02-19T06:48:46.556Z,100415.63
2023-02-19T06:51:16.084Z,100420.31
2023-02-19T06:53:43.790Z,100419.88
2023-02-19T06:56:25.423Z,100424.56
2023-02-19T06:58:53.437Z,100425.44
2023-02-19T07:01:21.479Z,100431.66
2023-02-19T07:03:49.203Z,100430.66
2023-02-19T07:06:17.060Z,100412.81
2023-02-19T07:08:44.752Z,100435.25
2023-02-19T07:11:12.593Z,100432.78
2023-02-19T07:13:41.720Z,100430.59
2023-02-19T07:16:11.005Z,100435.34
2023-02-19T07:18:39.938Z,100440.06
2023-02-19T07:21:10.650Z,100438.72
2023-02-19T07:23:38.793Z,100434.56
2023-02-19T07:26:10.253Z,100434.81
2023-02-19T07:28:37.943Z,100439.25
2023-02-19T07:31:07.418Z,100444.09
2023-02-19T07:33:35.075Z,100445.00
2023-02-19T07:36:02.903Z,100452.78
2023-02-19T07:38:30.612Z,100443.94
2023-02-19T07:41:00.275Z,100461.47
2023-02-19T07:43:30.132Z,100465.09
2023-02-19T07:45:57.903Z,100463.22
2023-02-19T07:48:26.965Z,100456.75
2023-02-19T07:50:55.354Z,100461.28
2023-02-19T07:53:24.250Z,100470.94
2023-02-19T07:55:52.611Z,100467.13
2023-02-19T07:58:20.460Z,100465.78
2023-02-19T08:00:48.214Z,100475.06
2023-02-19T08:03:15.930Z,100476.94
2023-02-19T08:05:45.271Z,100478.28
2023-02-19T08:08:14.821Z,100484.72
2023-02-19T08:11:00.319Z,100473.25
2023-02-19T08:13:30.102Z,100487.44
2023-02-19T08:16:20.090Z,100489.09
2023-02-19T08:18:50.080Z,100482.56
2023-02-19T08:21:20.441Z,100489.31
2023-02-19T08:23:50.862Z,100490.81
2023-02-19T08:26:19.533Z,100491.78
2023-02-19T08:28:47.294Z,100480.72
2023-02-19T08:31:15.467Z,100481.88
2023-02-19T08:33:43.213Z,100497.50
2023-02-19T08:36:12.348Z,100496.91
2023-02-19T08:38:41.435Z,100506.69
2023-02-19T08:41:11.609Z,100525.03
2023-02-19T08:43:40.207Z,100521.31
2023-02-19T08:46:09.945Z,100528.31
2023-02-19T08:48:38.531Z,100520.16
2023-02-19T08:51:09.799Z,100538.88
2023-02-19T08:53:39.617Z,100548.88
2023-02-19T08:56:09.863Z,100549.47
2023-02-19T08:58:37.730Z,100541.59
2023-02-19T09:01:09.682Z,100544.22
2023-02-19T09:03:37.809Z,100543.94
2023-02-19T09:06:05.931Z,100552.88
2023-02-19T09:08:33.659Z,100554.41
2023-02-19T09:11:03.349Z,100558.22
2023-02-19T09:13:32.590Z,100558.81
2023-02-19T09:16:00.313Z,100559.41
2023-02-19T09:18:28.105Z,100560.06
2023-02-19T09:20:57.600Z,100557.66
2023-02-19T09:23:25.371Z,100562.75
2023-02-19T09:25:58.481Z,100558.03
2023-02-19T09:28:26.646Z,100560.09
2023-02-19T09:30:56.023Z,100559.06
2023-02-19T09:33:23.938Z,100568.69
2023-02-19T09:35:51.755Z,100564.66
2023-02-19T09:38:19.419Z,100567.00
2023-02-19T09:40:47.327Z,100568.13
2023-02-19T09:43:19.792Z,100571.19
2023-02-19T09:45:47.930Z,100575.16
2023-02-19T09:48:16.953Z,100582.28
2023-02-19T09:50:48.828Z,100588.25
2023-02-19T09:53:21.757Z,100593.28
2023-02-19T09:55:50.170Z,100587.81
2023-02-19T09:58:27.059Z,100585.56
2023-02-19T10:00:56.897Z,100590.13
2023-02-19T10:03:31.771Z,100585.03
2023-02-19T10:06:01.731Z,100597.50
2023-02-19T10:08:33.859Z,100591.88
2023-02-19T10:11:03.666Z,100579.31
2023-02-19T10:13:34.577Z,100586.88
2023-02-19T10:16:05.220Z,100603.13
2023-02-19T10:18:41.100Z,100597.50
2023-02-19T10:21:11.840Z,100597.44
2023-02-19T10:23:41.854Z,100574.78
2023-02-19T10:26:09.580Z,100602.38
2023-02-19T10:28:37.356Z,100606.72
2023-02-19T10:31:08.132Z,100611.28
2023-02-19T10:33:50.178Z,100611.16
2023-02-19T10:36:26.318Z,100609.66
2023-02-19T10:38:55.093Z,100617.38
2023-02-19T10:41:25.280Z,100615.25
2023-02-19T10:43:56.704Z,100614.00
2023-02-19T10:46:27.851Z,100618.13
2023-02-19T10:48:59.342Z,100630.81
2023-02-19T10:51:34.096Z,100607.75
2023-02-19T10:54:07.981Z,100624.41
2023-02-19T10:56:38.415Z,100628.81
2023-02-19T10:59:22.121Z,100634.44
2023-02-19T11:01:57.461Z,100639.47
2023-02-19T11:04:27.421Z,100639.22
2023-02-19T11:06:55.518Z,100645.38
2023-02-19T11:09:27.958Z,100654.81
2023-02-19T11:11:57.785Z,100656.25
2023-02-19T11:14:27.922Z,100659.44
2023-02-19T11:16:57.768Z,100658.16
2023-02-19T11:19:32.093Z,100648.75
2023-02-19T11:22:01.461Z,100663.47
2023-02-19T11:24:35.092Z,100656.63
2023-02-19T11:27:04.990Z,100650.53
2023-02-19T11:29:34.808Z,100651.72
2023-02-19T11:32:27.753Z,100643.56
2023-02-19T11:35:19.580Z,100650.03
2023-02-19T11:37:59.023Z,100645.56
2023-02-19T11:40:40.050Z,100638.03
2023-02-19T11:43:22.366Z,100637.47
2023-02-19T11:46:01.054Z,100638.47
2023-02-19T11:48:43.443Z,100637.50
2023-02-19T11:51:31.720Z,100633.66
2023-02-19T11:54:11.254Z,100634.31
2023-02-19T11:56:43.056Z,100623.81
2023-02-19T11:59:19.481Z,100627.59
2023-02-19T12:02:03.550Z,100629.88
2023-02-19T12:05:01.032Z,100634.91
2023-02-19T12:08:00.248Z,100633.38
2023-02-19T12:10:36.533Z,100631.97
2023-02-19T12:13:12.302Z,100644.50
2023-02-19T12:15:52.442Z,100648.94
2023-02-19T12:18:36.569Z,100657.88
2023-02-19T12:21:18.622Z,100656.66
2023-02-19T12:24:03.251Z,100652.91
2023-02-19T12:26:35.084Z,100640.66
2023-02-19T12:29:17.849Z,100646.97
2023-02-19T12:32:04.442Z,100643.16
2023-02-19T12:34:44.426Z,100628.31
2023-02-19T12:37:24.430Z,100632.06
2023-02-19T12:40:13.403Z,100635.38
2023-02-19T12:42:53.045Z,100630.88
2023-02-19T12:45:26.472Z,100638.72
2023-02-19T12:48:02.609Z,100648.47
2023-02-19T12:50:32.768Z,100639.88
2023-02-19T12:53:07.164Z,100649.66
2023-02-19T12:55:40.026Z,100651.94
2023-02-19T12:58:16.640Z,100634.09
2023-02-19T13:00:50.426Z,100656.34
2023-02-19T13:03:23.712Z,100645.84
2023-02-19T13:05:56.030Z,100638.03
2023-02-19T13:08:28.380Z,100630.13
2023-02-19T13:11:02.237Z,100628.56
2023-02-19T13:13:35.425Z,100623.00
2023-02-19T13:16:09.783Z,100617.47
2023-02-19T13:18:42.855Z,100613.91
2023-02-19T13:21:12.263Z,100612.69
2023-02-19T13:24:03.011Z,100622.06
2023-02-19T13:26:46.233Z,100618.53
2023-02-19T13:29:26.771Z,100612.91
2023-02-19T13:32:15.541Z,100616.84
2023-02-19T13:34:56.564Z,100610.34
2023-02-19T13:37:25.038Z,100598.97
2023-02-19T13:39:55.570Z,100585.53
2023-02-19T13:42:28.325Z,100611.09
2023-02-19T13:44:58.060Z,100610.56
2023-02-19T13:47:48.000Z,100618.19
2023-02-19T13:50:22.627Z,100616.28
2023-02-19T13:52:50.991Z,100625.78
2023-02-19T13:55:52.366Z,100616.59
2023-02-19T13:58:55.751Z,100616.75
2023-02-19T14:02:13.432Z,100619.63
2023-02-19T14:04:53.693Z,100627.56
2023-02-19T14:07:43.951Z,100636.22
2023-02-19T14:10:15.026Z,100635.00
2023-02-19T14:12:42.862Z,100637.75
2023-02-19T14:15:44.863Z,100649.28
2023-02-19T14:18:45.296Z,100653.25
2023-02-19T14:21:18.683Z,100653.06
2023-02-19T14:23:52.714Z,100664.47
2023-02-19T14:26:20.930Z,100663.22
2023-02-19T14:28:50.750Z,100657.84
2023-02-19T14:31:27.133Z,100665.09
2023-02-19T14:33:56.735Z,100668.28
2023-02-19T14:36:45.235Z,100667.22
2023-02-19T14:39:17.843Z,100645.50
2023-02-19T14:41:49.396Z,100669.72
2023-02-19T14:44:21.249Z,100670.84
2023-02-19T14:46:55.757Z,100674.66
2023-02-19T14:49:29.667Z,100666.78
2023-02-19T14:52:00.965Z,100681.00
2023-02-19T14:54:43.993Z,100686.56
2023-02-19T14:57:17.165Z,100684.50
2023-02-19T14:59:55.315Z,100695.38
2023-02-19T15:02:25.933Z,100693.41
2023-02-19T15:04:54.209Z,100684.78
2023-02-19T15:07:25.030Z,100691.56
2023-02-19T15:09:58.522Z,100691.75
2023-02-19T15:12:29.032Z,100697.00
2023-02-19T15:15:00.780Z,100694.50
2023-02-19T15:17:32.628Z,100697.28
2023-02-19T15:20:05.925Z,100699.69
2023-02-19T15:22:34.155Z,100693.34
2023-02-19T15:25:02.660Z,100701.09
2023-02-19T15:27:30.610Z,100703.94
2023-02-19T15:29:58.232Z,100698.34
2023-02-19T15:32:27.487Z,100682.03
2023-02-19T15:34:57.840Z,100704.94
2023-02-19T15:37:27.891Z,100708.25
2023-02-19T15:39:57.238Z,100716.47
2023-02-19T15:42:27.529Z,100724.31
2023-02-19T15:44:59.127Z,100723.63
2023-02-19T15:47:33.352Z,100716.56
2023-02-19T15:50:08.004Z,100721.59
2023-02-19T15:52:44.739Z,100715.75
2023-02-19T15:55:24.313Z,100721.50
2023-02-19T15:57:59.400Z,100727.06
2023-02-19T16:00:33.380Z,100720.84
2023-02-19T16:03:02.195Z,100718.19
2023-02-19T16:05:36.960Z,100715.59
2023-02-19T16:08:17.470Z,100734.16
2023-02-19T16:10:55.772Z,100696.66
2023-02-19T16:13:27.871Z,100719.81
2023-02-19T16:16:07.450Z,100722.56
2023-02-19T16:18:36.237Z,100719.38
2023-02-19T16:21:09.661Z,100712.09
2023-02-19T16:23:42.932Z,100705.66
2023-02-19T16:26:11.167Z,100712.56
2023-02-19T16:28:41.224Z,100664.97
2023-02-19T16:31:11.669Z,100716.59
2023-02-19T16:33:41.707Z,100707.69
2023-02-19T16:36:41.295Z,100703.66
2023-02-19T16:39:20.227Z,100709.66
2023-02-19T16:42:19.241Z,100708.91
2023-02-19T16:44:48.435Z,100704.22
2023-02-19T16:47:32.489Z,100717.84
2023-02-19T16:50:03.013Z,100711.09
2023-02-19T16:52:32.177Z,100704.72
2023-02-19T16:54:59.823Z,100702.69
2023-02-19T16:57:27.456Z,100719.13
2023-02-19T16:59:55.147Z,100725.59
2023-02-19T17:02:25.497Z,100722.84
2023-02-19T17:04:55.120Z,100734.88
2023-02-19T17:07:23.436Z,100731.31
2023-02-19T17:09:52.500Z,100739.34
2023-02-19T17:12:20.216Z,100738.25
2023-02-19T17:14:47.827Z,100754.44
2023-02-19T17:17:16.053Z,100748.03
2023-02-19T17:19:43.694Z,100760.72
2023-02-19T17:22:16.651Z,100760.50
2023-02-19T17:24:44.393Z,100770.78
2023-02-19T17:27:14.244Z,100786.06
2023-02-19T17:29:41.908Z,100780.69
2023-02-19T17:32:09.742Z,100786.63
2023-02-19T17:34:37.490Z,100791.88
2023-02-19T17:37:05.188Z,100797.59
2023-02-19T17:39:32.906Z,100803.78
2023-02-19T17:42:00.562Z,100805.47
2023-02-19T17:44:29.614Z,100809.94
2023-02-19T17:46:57.362Z,100809.66
2023-02-19T17:49:25.081Z,100818.63
2023-02-19T17:51:52.763Z,100817.03
2023-02-19T17:54:20.452Z,100826.19
2023-02-19T17:56:48.141Z,100827.53
2023-02-19T17:59:18.022Z,100836.47
2023-02-19T18:01:47.272Z,100832.69
2023-02-19T18:04:15.106Z,100840.66
2023-02-19T18:06:43.248Z,100836.97
2023-02-19T18:09:15.094Z,100840.59
2023-02-19T18:11:45.536Z,100834.00
2023-02-19T18:14:13.454Z,100830.47
2023-02-19T18:16:49.773Z,100831.19
2023-02-19T18:19:18.078Z,100843.69
2023-02-19T18:21:45.843Z,100855.06
2023-02-19T18:24:13.510Z,100839.97
2023-02-19T18:26:41.544Z,100855.94
2023-02-19T18:29:09.230Z,100866.22
2023-02-19T18:31:37.929Z,100861.97
2023-02-19T18:34:07.499Z,100865.25
2023-02-19T18:36:35.137Z,100877.50
2023-02-19T18:39:02.904Z,100884.25
2023-02-19T18:41:30.566Z,100890.00
2023-02-19T18:43:59.774Z,100885.91
2023-02-19T18:46:27.439Z,100889.47
2023-02-19T18:48:55.079Z,100897.50
2023-02-19T18:51:24.346Z,100897.94
2023-02-19T18:53:52.028Z,100895.91
2023-02-19T18:56:19.728Z,100900.69
2023-02-19T18:58:50.031Z,100887.75
2023-02-19T19:01:18.583Z,100890.13
2023-02-19T19:03:46.391Z,100893.72
2023-02-19T19:06:14.055Z,100896.00
2023-02-19T19:08:43.071Z,100890.41
2023-02-19T19:11:11.012Z,100898.56
2023-02-19T19:13:39.017Z,100892.00
2023-02-19T19:16:07.064Z,100903.81
2023-02-19T19:18:38.032Z,100899.16
2023-02-19T19:21:06.497Z,100888.88
2023-02-19T19:23:34.157Z,100895.69
2023-02-19T19:26:05.749Z,100898.09
2023-02-19T19:28:33.638Z,100900.50
2023-02-19T19:31:01.583Z,100899.00
2023-02-19T19:33:30.527Z,100896.25
2023-02-19T19:35:58.281Z,100896.53
2023-02-19T19:38:26.390Z,100889.34
2023-02-19T19:40:54.085Z,100879.19
2023-02-19T19:43:23.102Z,100886.31
2023-02-19T19:45:51.031Z,100888.44
2023-02-19T19:48:18.818Z,100890.13
2023-02-19T19:50:46.672Z,100886.41
2023-02-19T19:53:14.602Z,100900.63
2023-02-19T19:55:42.210Z,100896.25
2023-02-19T19:58:09.847Z,100905.28
2023-02-19T20:00:38.829Z,100907.53
2023-02-19T20:03:06.868Z,100908.88
2023-02-19T20:05:34.611Z,100909.09
2023-02-19T20:08:02.450Z,100879.28
2023-02-19T20:10:30.150Z,100908.19
2023-02-19T20:12:57.810Z,100901.91
2023-02-19T20:15:25.485Z,100895.88
2023-02-19T20:17:54.590Z,100898.91
2023-02-19T20:20:22.644Z,100901.47
2023-02-19T20:22:51.742Z,100909.38
2023-02-19T20:25:20.873Z,100898.09
2023-02-19T20:27:48.769Z,100917.63
2023-02-19T20:30:19.639Z,100918.56
2023-02-19T20:32:47.347Z,100916.09
2023-02-19T20:35:17.088Z,100927.66
2023-02-19T20:37:47.870Z,100933.78
2023-02-19T20:40:18.368Z,100887.81
2023-02-19T20:42:46.495Z,100925.31
2023-02-19T20:45:16.649Z,100925.19
2023-02-19T20:47:44.502Z,100933.09
2023-02-19T20:50:12.997Z,100930.13
2023-02-19T20:52:42.011Z,100925.75
2023-02-19T20:55:10.827Z,100929.41
2023-02-19T20:57:38.477Z,100933.09
2023-02-19T21:00:08.217Z,100935.16
2023-02-19T21:02:35.975Z,100937.75
2023-02-19T21:05:04.334Z,100920.31
2023-02-19T21:07:32.042Z,100941.19
2023-02-19T21:10:01.064Z,100948.38
2023-02-19T21:12:28.699Z,100943.59
2023-02-19T21:14:56.509Z,100932.50
2023-02-19T21:17:24.165Z,100935.84
2023-02-19T21:19:51.873Z,100931.72
2023-02-19T21:22:19.692Z,100931.72
2023-02-19T21:24:51.951Z,100926.22
2023-02-19T21:27:21.436Z,100917.78
2023-02-19T21:29:49.076Z,100924.41
2023-02-19T21:32:16.874Z,100920.75
2023-02-19T21:34:44.619Z,100933.41
2023-02-19T21:37:12.336Z,100928.72
2023-02-19T21:39:40.019Z,100929.94
2023-02-19T21:42:07.723Z,100941.66
2023-02-19T21:44:36.790Z,100940.50
2023-02-19T21:47:04.550Z,100950.09
2023-02-19T21:49:32.276Z,100954.00
2023-02-19T21:52:00.015Z,100967.28
2023-02-19T21:54:27.763Z,100967.97
2023-02-19T21:56:55.842Z,100961.22
2023-02-19T21:59:24.027Z,100962.28
2023-02-19T22:01:53.016Z,100955.75
2023-02-19T22:04:24.447Z,100955.28
2023-02-19T22:06:55.894Z,100953.41
2023-02-19T22:09:24.059Z,100953.59
2023-02-19T22:11:52.260Z,100957.72
2023-02-19T22:14:19.936Z,100957.47
2023-02-19T22:16:48.012Z,100954.94
2023-02-19T22:19:17.161Z,100951.75
2023-02-19T22:21:45.623Z,100948.28
2023-02-19T22:24:16.553Z,100950.13
2023-02-19T22:26:44.909Z,100954.59
2023-02-19T22:29:14.401Z,100942.25
2023-02-19T22:31:42.528Z,100970.28
2023-02-19T22:34:10.479Z,100967.91
2023-02-19T22:36:40.268Z,100959.19
2023-02-19T22:39:10.018Z,100959.78
2023-02-19T22:41:42.776Z,100959.69
2023-02-19T22:44:11.089Z,100964.91
2023-02-19T22:46:38.752Z,100968.38
2023-02-19T22:49:07.557Z,100954.06
2023-02-19T22:51:36.429Z,100969.88
2023-02-19T22:54:05.942Z,100973.63
2023-02-19T22:56:33.674Z,100972.13
2023-02-19T22:59:01.406Z,100974.06
2023-02-19T23:01:29.190Z,100979.56
2023-02-19T23:03:58.840Z,100975.13
2023-02-19T23:06:28.838Z,100972.13
2023-02-19T23:08:58.224Z,100973.72
2023-02-19T23:11:29.588Z,100969.75
2023-02-19T23:13:57.368Z,100977.59
2023-02-19T23:16:25.504Z,100971.31
2023-02-19T23:18:53.370Z,100973.94
2023-02-19T23:21:23.039Z,100974.19
2023-02-19T23:23:50.975Z,100974.63
2023-02-19T23:26:19.464Z,100971.88
2023-02-19T23:28:48.843Z,100980.28
2023-02-19T23:31:17.326Z,100973.28
2023-02-19T23:33:45.521Z,100967.06
2023-02-19T23:36:14.993Z,100962.84
2023-02-19T23:38:45.243Z,100970.28
2023-02-19T23:41:15.592Z,100964.31
2023-02-19T23:43:43.689Z,100972.03
2023-02-19T23:46:17.271Z,100966.75
2023-02-19T23:48:46.930Z,100966.09
2023-02-19T23:51:14.962Z,100971.34
2023-02-19T23:53:42.669Z,100975.13
2023-02-19T23:56:10.419Z,100989.66
2023-02-19T23:58:38.091Z,100994.16
